Terminal Aerodrome Forecast
Issued by NWS

Home | Current Version | Previous Version | Graphics & Text | Print | Product List | Glossary On
Versions: 1 2 3 4 5 6 7 8 9 10 11 12 13 14 15 16 17 18 19
000
FTUS45 KGGW 221724
TAFOLF
TAF
KOLF 221724Z 2218/2318 VRB05KT P6SM VCSH OVC018
     FM222100 08006KT P6SM BKN035
     FM230000 06008KT P6SM BKN050
     FM230900 07011KT P6SM BKN030
     FM231200 08012KT P6SM BKN014=

USA.gov is the U.S. government's official web portal to all federal, state and local government web resources and services.